createdAt,value
2024-01-01T00:00:39.089Z,16.95
2024-01-01T00:03:41.950Z,16.60
2024-01-01T00:06:45.089Z,16.15
2024-01-01T00:09:47.451Z,16.33
2024-01-01T00:12:50.416Z,15.43
2024-01-01T00:15:53.597Z,15.85
2024-01-01T00:18:56.529Z,15.88
2024-01-01T00:21:59.592Z,15.90
2024-01-01T00:25:03.767Z,16.42
2024-01-01T00:28:07.145Z,16.17
2024-01-01T00:31:10.024Z,15.90
2024-01-01T00:34:12.386Z,15.77
2024-01-01T00:37:15.708Z,16.52
2024-01-01T00:40:18.819Z,15.70
2024-01-01T00:43:22.124Z,16.02
2024-01-01T00:46:24.654Z,16.58
2024-01-01T00:49:27.195Z,15.30
2024-01-01T00:52:30.437Z,15.40
2024-01-01T00:55:33.511Z,15.15
2024-01-01T00:58:37.093Z,15.32
2024-01-01T01:01:39.709Z,13.07
2024-01-01T01:04:52.003Z,13.73
2024-01-01T01:11:04.113Z,11.20
2024-01-01T01:14:08.015Z,11.95
2024-01-01T01:17:10.624Z,10.98
2024-01-01T01:20:13.189Z,11.10
2024-01-01T01:23:15.595Z,10.10
2024-01-01T01:26:18.044Z,10.23
2024-01-01T01:29:21.116Z,10.10
2024-01-01T01:32:24.249Z,10.05
2024-01-01T01:35:26.669Z,9.57
2024-01-01T01:38:29.256Z,9.57
2024-01-01T01:41:32.854Z,9.52
2024-01-01T01:44:36.792Z,9.55
2024-01-01T01:47:39.542Z,8.93
2024-01-01T01:50:42.361Z,8.73
2024-01-01T01:53:46.035Z,8.30
2024-01-01T01:56:49.917Z,8.68
2024-01-01T01:59:52.816Z,7.63
2024-01-01T02:02:56.275Z,7.68
2024-01-01T02:05:59.210Z,7.63
2024-01-01T02:09:02.328Z,7.22
2024-01-01T02:12:04.775Z,7.32
2024-01-01T02:15:07.288Z,7.28
2024-01-01T02:18:11.035Z,6.70
2024-01-01T02:21:13.779Z,6.47
2024-01-01T02:24:16.459Z,6.93
2024-01-01T02:27:19.581Z,6.32
2024-01-01T02:30:22.034Z,6.43
2024-01-01T02:33:24.793Z,6.25
2024-01-01T02:36:27.549Z,6.40
2024-01-01T02:39:30.600Z,6.43
2024-01-01T02:42:32.999Z,6.18
2024-01-01T02:45:36.108Z,5.82
2024-01-01T02:48:39.596Z,6.18
2024-01-01T02:51:42.153Z,6.10
2024-01-01T02:54:45.236Z,6.20
2024-01-01T02:57:48.113Z,5.45
2024-01-01T03:00:50.980Z,5.72
2024-01-01T03:03:54.152Z,5.25
2024-01-01T03:06:57.069Z,5.57
2024-01-01T03:09:59.424Z,5.18
2024-01-01T03:13:01.779Z,4.75
2024-01-01T03:16:04.109Z,4.68
2024-01-01T03:19:07.030Z,4.57
2024-01-01T03:22:09.921Z,4.72
2024-01-01T03:25:12.690Z,4.65
2024-01-01T03:28:17.492Z,4.60
2024-01-01T03:31:20.214Z,4.00
2024-01-01T03:34:23.639Z,4.55
2024-01-01T03:37:26.257Z,3.90
2024-01-01T03:40:29.422Z,4.03
2024-01-01T03:43:32.374Z,3.85
2024-01-01T03:46:35.876Z,3.60
2024-01-01T03:49:38.819Z,3.83
2024-01-01T03:52:41.579Z,3.78
2024-01-01T03:55:44.761Z,3.53
2024-01-01T03:58:47.160Z,3.40
2024-01-01T04:01:49.642Z,3.80
2024-01-01T04:04:53.108Z,3.63
2024-01-01T04:07:56.624Z,3.40
2024-01-01T04:10:59.872Z,3.30
2024-01-01T04:14:03.077Z,2.90
2024-01-01T04:17:06.624Z,2.80
2024-01-01T04:20:09.932Z,3.08
2024-01-01T04:23:12.588Z,2.97
2024-01-01T04:26:16.007Z,3.00
2024-01-01T04:29:19.595Z,3.08
2024-01-01T04:32:23.012Z,2.75
2024-01-01T04:35:25.490Z,3.33
2024-01-01T04:38:28.924Z,3.00
2024-01-01T04:41:32.062Z,2.90
2024-01-01T04:44:34.886Z,2.65
2024-01-01T04:47:38.478Z,2.60
2024-01-01T04:50:40.835Z,2.88
2024-01-01T04:53:43.604Z,3.10
2024-01-01T04:56:45.978Z,2.80
2024-01-01T04:59:48.699Z,2.65
2024-01-01T05:02:51.907Z,2.90
2024-01-01T05:05:54.643Z,2.50
2024-01-01T05:08:57.727Z,2.90
2024-01-01T05:12:00.553Z,2.80
2024-01-01T05:15:03.698Z,2.80
2024-01-01T05:18:07.608Z,2.60
2024-01-01T05:21:11.504Z,2.67
2024-01-01T05:24:15.509Z,2.63
2024-01-01T05:27:19.164Z,2.33
2024-01-01T05:30:21.554Z,2.28
2024-01-01T05:33:24.509Z,2.42
2024-01-01T05:36:27.669Z,1.80
2024-01-01T05:39:30.551Z,2.03
2024-01-01T05:42:33.220Z,2.30
2024-01-01T05:45:36.260Z,2.05
2024-01-01T05:48:41.149Z,2.03
2024-01-01T05:51:44.986Z,1.95
2024-01-01T05:54:48.328Z,1.90
2024-01-01T05:57:51.918Z,2.28
2024-01-01T06:00:55.019Z,1.80
2024-01-01T06:03:57.758Z,1.92
2024-01-01T06:07:00.947Z,1.92
2024-01-01T06:10:04.336Z,2.08
2024-01-01T06:13:07.890Z,1.95
2024-01-01T06:16:10.746Z,1.70
2024-01-01T06:19:14.548Z,1.80
2024-01-01T06:22:17.059Z,1.65
2024-01-01T06:25:19.828Z,1.58
2024-01-01T06:28:22.433Z,1.90
2024-01-01T06:31:25.415Z,1.70
2024-01-01T06:34:28.418Z,1.60
2024-01-01T06:37:32.340Z,1.75
2024-01-01T06:40:36.261Z,1.50
2024-01-01T06:43:38.592Z,1.77
2024-01-01T06:46:41.834Z,1.80
2024-01-01T06:49:45.145Z,1.70
2024-01-01T06:52:48.549Z,1.60
2024-01-01T06:55:51.964Z,1.73
2024-01-01T06:58:56.091Z,1.77
2024-01-01T07:01:59.588Z,1.70
2024-01-01T07:05:03.068Z,1.55
2024-01-01T07:08:06.648Z,1.50
2024-01-01T07:11:09.830Z,1.45
2024-01-01T07:14:12.987Z,1.70
2024-01-01T07:17:16.237Z,1.73
2024-01-01T07:20:19.124Z,2.10
2024-01-01T07:23:21.552Z,1.75
2024-01-01T07:26:24.730Z,1.63
2024-01-01T07:29:28.524Z,1.50
2024-01-01T07:32:31.674Z,1.50
2024-01-01T07:35:34.773Z,1.27
2024-01-01T07:38:37.850Z,1.52
2024-01-01T07:41:41.411Z,1.70
2024-01-01T07:44:44.618Z,1.38
2024-01-01T07:47:47.582Z,1.38
2024-01-01T07:50:50.361Z,1.27
2024-01-01T07:53:54.013Z,1.00
2024-01-01T07:56:56.761Z,1.20
2024-01-01T08:00:00.056Z,1.25
2024-01-01T08:03:09.806Z,1.30
2024-01-01T08:06:13.825Z,1.50
2024-01-01T08:09:16.464Z,1.15
2024-01-01T08:12:19.386Z,1.10
2024-01-01T08:15:21.667Z,1.10
2024-01-01T08:18:24.075Z,1.40
2024-01-01T08:21:27.529Z,1.30
2024-01-01T08:24:31.113Z,1.42
2024-01-01T08:27:34.191Z,1.45
2024-01-01T08:30:37.149Z,1.40
2024-01-01T08:33:39.869Z,1.50
2024-01-01T08:36:42.594Z,1.65
2024-01-01T08:39:45.034Z,1.35
2024-01-01T08:42:48.416Z,1.10
2024-01-01T08:45:52.054Z,1.20
2024-01-01T08:48:54.306Z,1.30
2024-01-01T08:51:56.741Z,1.48
2024-01-01T08:54:59.978Z,1.40
2024-01-01T08:58:03.094Z,1.60
2024-01-01T09:01:07.274Z,1.20
2024-01-01T09:04:10.356Z,1.20
2024-01-01T09:07:13.372Z,1.17
2024-01-01T09:10:15.788Z,1.30
2024-01-01T09:13:19.034Z,1.52
2024-01-01T09:16:22.641Z,1.30
2024-01-01T09:19:25.876Z,1.08
2024-01-01T09:22:29.303Z,1.40
2024-01-01T09:25:31.915Z,1.60
2024-01-01T09:28:34.389Z,1.35
2024-01-01T09:31:37.674Z,1.20
2024-01-01T09:34:41.217Z,1.40
2024-01-01T09:37:44.849Z,1.13
2024-01-01T09:40:47.614Z,1.50
2024-01-01T09:43:50.975Z,1.23
2024-01-01T09:46:54.548Z,1.48
2024-01-01T09:49:56.891Z,1.38
2024-01-01T09:52:59.722Z,1.60
2024-01-01T09:56:02.633Z,1.20
2024-01-01T09:59:05.358Z,1.15
2024-01-01T10:02:08.630Z,1.35
2024-01-01T10:05:12.186Z,0.90
2024-01-01T10:08:15.717Z,0.95
2024-01-01T10:11:18.771Z,0.95
2024-01-01T10:14:21.704Z,1.10
2024-01-01T10:17:25.444Z,1.13
2024-01-01T10:20:29.306Z,0.90
2024-01-01T10:23:32.598Z,0.88
2024-01-01T10:26:35.498Z,1.00
2024-01-01T10:29:38.778Z,1.02
2024-01-01T10:32:42.524Z,1.00
2024-01-01T10:35:45.861Z,1.10
2024-01-01T10:38:49.352Z,0.90
2024-01-01T10:41:52.987Z,1.10
2024-01-01T10:44:56.205Z,1.00
2024-01-01T10:47:59.181Z,1.10
2024-01-01T10:51:02.847Z,1.02
2024-01-01T10:54:04.926Z,0.90
2024-01-01T10:57:07.480Z,0.85
2024-01-01T11:00:10.747Z,1.00
2024-01-01T11:03:13.745Z,0.82
2024-01-01T11:06:16.473Z,0.90
2024-01-01T11:09:20.205Z,0.80
2024-01-01T11:12:23.841Z,1.20
2024-01-01T11:15:27.885Z,1.30
2024-01-01T11:18:32.001Z,1.08
2024-01-01T11:21:36.106Z,1.02
2024-01-01T11:24:39.674Z,1.13
2024-01-01T11:27:42.785Z,1.17
2024-01-01T11:30:45.430Z,0.90
2024-01-01T11:33:48.956Z,1.02
2024-01-01T11:36:52.022Z,1.00
2024-01-01T11:39:54.836Z,1.02
2024-01-01T11:42:57.928Z,0.88
2024-01-01T11:46:02.976Z,0.90
2024-01-01T11:49:06.893Z,1.10
2024-01-01T11:52:10.012Z,0.93
2024-01-01T11:55:13.975Z,1.10
2024-01-01T11:58:17.403Z,0.90
2024-01-01T12:01:19.508Z,0.98
2024-01-01T12:04:22.642Z,1.05
2024-01-01T12:07:25.758Z,1.05
2024-01-01T12:10:28.353Z,0.90
2024-01-01T12:13:31.640Z,1.20
2024-01-01T12:16:34.782Z,1.10
2024-01-01T12:19:38.168Z,0.82
2024-01-01T12:22:41.677Z,1.08
2024-01-01T12:25:44.824Z,1.10
2024-01-01T12:28:47.557Z,0.82
2024-01-01T12:31:50.953Z,0.90
2024-01-01T12:34:54.085Z,1.23
2024-01-01T12:37:56.385Z,0.80
2024-01-01T12:40:59.336Z,1.10
2024-01-01T12:44:02.612Z,1.00
2024-01-01T12:47:05.823Z,1.10
2024-01-01T12:50:09.000Z,0.90
2024-01-01T12:53:12.348Z,0.90
2024-01-01T12:56:15.308Z,1.00
2024-01-01T12:59:18.062Z,1.30
2024-01-01T13:02:21.878Z,1.00
2024-01-01T13:05:25.892Z,1.13
2024-01-01T13:08:29.635Z,1.10
2024-01-01T13:11:32.716Z,1.08
2024-01-01T13:14:35.981Z,1.02
2024-01-01T13:17:40.060Z,0.90
2024-01-01T13:20:44.056Z,1.00
2024-01-01T13:23:46.853Z,0.98
2024-01-01T13:26:50.495Z,1.20
2024-01-01T13:29:53.715Z,0.90
2024-01-01T13:32:56.250Z,0.90
2024-01-01T13:35:59.159Z,1.08
2024-01-01T13:39:03.203Z,1.20
2024-01-01T13:42:07.233Z,0.98
2024-01-01T13:45:10.327Z,0.90
2024-01-01T13:48:13.312Z,0.98
2024-01-01T13:51:15.638Z,1.05
2024-01-01T13:54:18.616Z,1.00
2024-01-01T13:57:21.594Z,0.90
2024-01-01T14:00:24.251Z,1.15
2024-01-01T14:03:28.315Z,1.00
2024-01-01T14:06:32.949Z,0.90
2024-01-01T14:09:36.638Z,1.10
2024-01-01T14:12:39.847Z,1.05
2024-01-01T14:15:42.729Z,1.10
2024-01-01T14:18:45.409Z,1.00
2024-01-01T14:21:47.691Z,1.10
2024-01-01T14:24:50.793Z,1.00
2024-01-01T14:27:54.193Z,1.00
2024-01-01T14:30:57.415Z,1.00
2024-01-01T14:34:00.375Z,0.90
2024-01-01T14:37:03.395Z,1.10
2024-01-01T14:40:06.574Z,1.33
2024-01-01T14:43:10.082Z,1.13
2024-01-01T14:46:13.672Z,1.08
2024-01-01T14:49:17.438Z,1.10
2024-01-01T14:52:20.559Z,1.10
2024-01-01T14:55:24.272Z,1.17
2024-01-01T14:58:27.245Z,1.30
2024-01-01T15:01:30.299Z,1.17
2024-01-01T15:04:33.152Z,1.42
2024-01-01T15:07:36.270Z,1.25
2024-01-01T15:10:39.670Z,1.13
2024-01-01T15:13:42.773Z,1.00
2024-01-01T15:16:45.442Z,1.10
2024-01-01T15:19:48.354Z,1.30
2024-01-01T15:22:51.465Z,1.40
2024-01-01T15:25:53.916Z,1.10
2024-01-01T15:28:57.569Z,1.20
2024-01-01T15:32:00.620Z,1.20
2024-01-01T15:35:03.458Z,1.20
2024-01-01T15:38:07.231Z,1.35
2024-01-01T15:41:10.761Z,1.15
2024-01-01T15:44:13.988Z,1.48
2024-01-01T15:47:16.885Z,1.35
2024-01-01T15:50:20.191Z,1.00
2024-01-01T15:53:23.580Z,1.20
2024-01-01T15:56:26.734Z,1.10
2024-01-01T15:59:30.184Z,1.00
2024-01-01T16:02:32.940Z,1.00
2024-01-01T16:05:36.220Z,1.17
2024-01-01T16:08:38.873Z,1.02
2024-01-01T16:11:41.686Z,1.08
2024-01-01T16:14:44.560Z,1.33
2024-01-01T16:17:47.552Z,1.33
2024-01-01T16:20:50.593Z,1.45
2024-01-01T16:23:54.185Z,1.00
2024-01-01T16:26:57.116Z,1.20
2024-01-01T16:29:59.958Z,1.27
2024-01-01T16:33:02.995Z,1.30
2024-01-01T16:36:05.784Z,1.42
2024-01-01T16:39:08.736Z,1.10
2024-01-01T16:42:11.065Z,1.17
2024-01-01T16:45:13.490Z,1.20
2024-01-01T16:48:15.864Z,1.30
2024-01-01T16:51:18.785Z,1.42
2024-01-01T16:54:21.568Z,1.58
2024-01-01T16:57:24.339Z,1.40
2024-01-01T17:00:28.329Z,1.70
2024-01-01T17:03:30.934Z,1.38
2024-01-01T17:06:33.209Z,1.50
2024-01-01T17:09:35.924Z,1.65
2024-01-01T17:12:38.993Z,1.48
2024-01-01T17:15:41.892Z,1.40
2024-01-01T17:18:45.161Z,1.25
2024-01-01T17:21:48.745Z,1.50
2024-01-01T17:24:51.810Z,1.40
2024-01-01T17:27:54.784Z,1.70
2024-01-01T17:30:57.616Z,1.50
2024-01-01T17:34:01.394Z,1.50
2024-01-01T17:37:06.671Z,1.48
2024-01-01T17:40:10.424Z,1.50
2024-01-01T17:43:13.186Z,1.42
2024-01-01T17:46:16.584Z,1.42
2024-01-01T17:49:20.081Z,1.40
2024-01-01T17:52:22.853Z,1.38
2024-01-01T17:55:25.857Z,1.45
2024-01-01T17:58:28.502Z,1.65
2024-01-01T18:01:31.686Z,1.33
2024-01-01T18:04:35.333Z,1.58
2024-01-01T18:07:38.079Z,1.30
2024-01-01T18:10:41.295Z,1.45
2024-01-01T18:13:44.364Z,1.50
2024-01-01T18:16:47.288Z,1.48
2024-01-01T18:19:50.147Z,1.70
2024-01-01T18:22:52.564Z,1.90
2024-01-01T18:25:55.284Z,1.80
2024-01-01T18:28:59.422Z,1.52
2024-01-01T18:32:02.435Z,1.60
2024-01-01T18:35:05.760Z,1.73
2024-01-01T18:38:09.048Z,1.80
2024-01-01T18:41:11.489Z,1.70
2024-01-01T18:44:14.475Z,2.05
2024-01-01T18:47:17.593Z,1.60
2024-01-01T18:50:20.669Z,1.80
2024-01-01T18:53:24.092Z,1.77
2024-01-01T18:56:27.889Z,2.10
2024-01-01T18:59:31.106Z,2.22
2024-01-01T19:02:34.655Z,2.22
2024-01-01T19:05:38.362Z,1.98
2024-01-01T19:08:41.360Z,2.10
2024-01-01T19:11:44.928Z,2.35
2024-01-01T19:14:47.958Z,2.03
2024-01-01T19:17:50.855Z,1.85
2024-01-01T19:20:54.142Z,1.70
2024-01-01T19:23:57.822Z,1.92
2024-01-01T19:27:00.151Z,2.08
2024-01-01T19:30:02.844Z,1.67
2024-01-01T19:33:10.033Z,1.95
2024-01-01T19:36:13.507Z,1.90
2024-01-01T19:39:16.836Z,2.13
2024-01-01T19:42:19.714Z,2.10
2024-01-01T19:45:25.640Z,1.90
2024-01-01T19:48:30.369Z,1.90
2024-01-01T19:51:33.784Z,1.80
2024-01-01T19:54:37.206Z,1.50
2024-01-01T19:57:40.183Z,1.85
2024-01-01T20:00:43.396Z,1.95
2024-01-01T20:03:46.093Z,1.70
2024-01-01T20:06:49.036Z,2.03
2024-01-01T20:09:51.479Z,2.15
2024-01-01T20:12:55.114Z,1.80
2024-01-01T20:15:57.922Z,2.15
2024-01-01T20:19:00.413Z,2.20
2024-01-01T20:22:03.292Z,1.70
2024-01-01T20:25:06.349Z,1.70
2024-01-01T20:28:09.399Z,1.83
2024-01-01T20:31:12.482Z,1.80
2024-01-01T20:34:15.687Z,1.88
2024-01-01T20:37:18.402Z,1.92
2024-01-01T20:40:21.604Z,1.60
2024-01-01T20:43:25.711Z,2.10
2024-01-01T20:46:29.713Z,2.05
2024-01-01T20:49:33.399Z,1.67
2024-01-01T20:52:42.726Z,1.85
2024-01-01T20:55:52.354Z,1.70
2024-01-01T20:58:55.601Z,1.63
2024-01-01T21:01:59.379Z,1.60
2024-01-01T21:05:02.155Z,1.80
2024-01-01T21:08:05.557Z,1.80
2024-01-01T21:11:08.283Z,1.70
2024-01-01T21:14:12.107Z,1.48
2024-01-01T21:17:15.865Z,1.70
2024-01-01T21:20:18.387Z,1.65
2024-01-01T21:23:21.439Z,1.90
2024-01-01T21:26:24.361Z,2.00
2024-01-01T21:29:27.792Z,1.90
2024-01-01T21:32:30.646Z,1.55
2024-01-01T21:35:34.782Z,1.85
2024-01-01T21:38:38.118Z,1.40
2024-01-01T21:41:41.515Z,1.50
2024-01-01T21:44:44.508Z,1.77
2024-01-01T21:47:47.697Z,1.50
2024-01-01T21:50:50.811Z,1.50
2024-01-01T21:53:54.357Z,1.38
2024-01-01T21:56:56.776Z,1.50
2024-01-01T21:59:59.578Z,1.25
2024-01-01T22:03:03.166Z,1.55
2024-01-01T22:06:05.692Z,1.20
2024-01-01T22:09:08.562Z,1.38
2024-01-01T22:12:12.062Z,1.60
2024-01-01T22:15:17.721Z,1.35
2024-01-01T22:18:20.514Z,1.42
2024-01-01T22:21:24.639Z,1.52
2024-01-01T22:24:27.395Z,1.23
2024-01-01T22:27:30.328Z,1.50
2024-01-01T22:30:33.556Z,1.30
2024-01-01T22:33:36.556Z,1.30
2024-01-01T22:36:39.734Z,1.35
2024-01-01T22:39:42.423Z,1.23
2024-01-01T22:42:45.388Z,1.42
2024-01-01T22:45:48.735Z,1.20
2024-01-01T22:48:53.269Z,1.27
2024-01-01T22:51:55.599Z,1.20
2024-01-01T22:54:58.389Z,1.30
2024-01-01T22:58:01.513Z,1.13
2024-01-01T23:01:04.582Z,1.10
2024-01-01T23:04:07.021Z,1.10
2024-01-01T23:07:09.861Z,1.23
2024-01-01T23:10:12.275Z,1.17
2024-01-01T23:13:15.274Z,1.10
2024-01-01T23:16:18.289Z,1.10
2024-01-01T23:19:20.082Z,1.10
2024-01-01T23:22:23.264Z,1.42
2024-01-01T23:25:26.293Z,1.20
2024-01-01T23:28:28.970Z,1.10
2024-01-01T23:31:32.511Z,1.33
2024-01-01T23:34:35.719Z,1.10
2024-01-01T23:37:38.288Z,1.20
2024-01-01T23:40:40.612Z,1.20
2024-01-01T23:43:43.002Z,1.42
2024-01-01T23:46:45.643Z,1.23
2024-01-01T23:49:47.711Z,1.30
2024-01-01T23:52:50.275Z,1.20
2024-01-01T23:55:52.662Z,1.40
2024-01-01T23:58:55.936Z,1.15
